createdAt,value
2023-10-20T00:01:18.168Z,76.62
2023-10-20T00:03:48.528Z,76.40
2023-10-20T00:06:18.830Z,76.29
2023-10-20T00:08:49.187Z,76.21
2023-10-20T00:11:19.614Z,76.07
2023-10-20T00:13:49.964Z,76.01
2023-10-20T00:16:26.429Z,75.94
2023-10-20T00:18:57.326Z,75.86
2023-10-20T00:21:27.584Z,75.84
2023-10-20T00:23:57.838Z,75.86
2023-10-20T00:26:28.194Z,75.83
2023-10-20T00:28:58.569Z,75.95
2023-10-20T00:31:30.666Z,76.01
2023-10-20T00:34:00.946Z,75.97
2023-10-20T00:36:31.315Z,76.05
2023-10-20T00:39:01.648Z,76.14
2023-10-20T00:41:32.358Z,76.13
2023-10-20T00:44:02.756Z,76.14
2023-10-20T00:46:33.303Z,76.18
2023-10-20T00:49:04.423Z,76.34
2023-10-20T00:51:35.211Z,76.32
2023-10-20T00:54:05.666Z,76.47
2023-10-20T00:56:36.185Z,76.57
2023-10-20T00:59:06.481Z,76.73
2023-10-20T01:01:36.999Z,76.76
2023-10-20T01:04:08.175Z,76.75
2023-10-20T01:06:39.038Z,76.78
2023-10-20T01:09:11.458Z,76.85
2023-10-20T01:11:42.135Z,76.96
2023-10-20T01:14:12.455Z,76.92
2023-10-20T01:16:43.325Z,76.98
2023-10-20T01:19:13.608Z,77.03
2023-10-20T01:21:44.390Z,77.17
2023-10-20T01:24:14.642Z,77.21
2023-10-20T01:26:45.343Z,77.04
2023-10-20T01:29:15.654Z,76.91
2023-10-20T01:31:45.935Z,76.99
2023-10-20T01:34:16.359Z,77.23
2023-10-20T01:36:47.374Z,77.33
2023-10-20T01:39:18.327Z,77.49
2023-10-20T01:41:48.600Z,77.80
2023-10-20T01:44:18.915Z,77.84
2023-10-20T01:46:51.063Z,77.78
2023-10-20T01:49:21.402Z,77.79
2023-10-20T01:51:51.640Z,77.66
2023-10-20T01:54:21.979Z,77.53
2023-10-20T01:56:52.411Z,77.28
2023-10-20T01:59:22.756Z,77.18
2023-10-20T02:01:53.184Z,77.05
2023-10-20T02:04:23.699Z,76.83
2023-10-20T02:06:53.974Z,76.70
2023-10-20T02:09:26.916Z,76.37
2023-10-20T02:11:59.553Z,76.28
2023-10-20T02:14:29.867Z,76.15
2023-10-20T02:17:00.208Z,76.21
2023-10-20T02:19:30.547Z,76.10
2023-10-20T02:22:01.741Z,76.07
2023-10-20T02:24:32.297Z,76.00
2023-10-20T02:27:02.746Z,75.80
2023-10-20T02:29:34.556Z,75.79
2023-10-20T02:32:05.998Z,75.70
2023-10-20T02:34:36.566Z,75.70
2023-10-20T02:37:08.341Z,75.71
2023-10-20T02:39:38.881Z,75.69
2023-10-20T02:42:09.128Z,75.69
2023-10-20T02:44:39.413Z,75.73
2023-10-20T02:47:09.726Z,75.77
2023-10-20T02:49:40.062Z,75.92
2023-10-20T02:52:14.280Z,76.02
2023-10-20T02:54:44.556Z,76.09
2023-10-20T02:57:15.225Z,76.12
2023-10-20T02:59:47.125Z,76.28
2023-10-20T03:02:18.027Z,76.26
2023-10-20T03:04:48.537Z,76.54
2023-10-20T03:07:25.645Z,76.52
2023-10-20T03:09:56.097Z,76.82
2023-10-20T03:12:26.511Z,76.87
2023-10-20T03:14:57.554Z,76.94
2023-10-20T03:17:28.051Z,77.03
2023-10-20T03:19:58.518Z,77.18
2023-10-20T03:22:30.459Z,77.19
2023-10-20T03:25:01.465Z,77.33
2023-10-20T03:27:32.127Z,77.41
2023-10-20T03:30:02.411Z,77.37
2023-10-20T03:32:32.807Z,77.27
2023-10-20T03:35:03.652Z,77.35
2023-10-20T03:37:34.006Z,77.55
2023-10-20T03:40:04.561Z,77.86
2023-10-20T03:42:34.844Z,77.90
2023-10-20T03:45:09.761Z,78.07
2023-10-20T03:47:40.942Z,78.09
2023-10-20T03:50:17.123Z,77.97
2023-10-20T03:52:49.692Z,78.01
2023-10-20T03:55:20.061Z,77.83
2023-10-20T03:57:50.823Z,77.84
2023-10-20T04:00:23.070Z,77.77
2023-10-20T04:02:53.567Z,77.73
2023-10-20T04:05:24.155Z,77.69
2023-10-20T04:07:54.810Z,77.58
2023-10-20T04:10:25.077Z,77.49
2023-10-20T04:12:55.326Z,77.36
2023-10-20T04:15:27.523Z,77.25
2023-10-20T04:17:58.022Z,77.13
2023-10-20T04:20:28.415Z,77.05
2023-10-20T04:22:59.944Z,76.80
2023-10-20T04:25:34.360Z,76.71
2023-10-20T04:28:13.206Z,76.52
2023-10-20T04:31:00.969Z,76.63
2023-10-20T04:33:48.723Z,76.62
2023-10-20T04:36:36.655Z,76.55
2023-10-20T04:39:24.921Z,76.54
2023-10-20T04:42:02.416Z,76.60
2023-10-20T04:45:01.535Z,76.67
2023-10-20T04:47:54.702Z,76.76
2023-10-20T04:50:53.257Z,76.92
2023-10-20T04:53:43.844Z,77.01
2023-10-20T04:56:33.907Z,77.10
2023-10-20T04:59:10.674Z,77.22
2023-10-20T05:01:45.447Z,77.33
2023-10-20T05:04:17.749Z,77.47
2023-10-20T05:06:55.983Z,77.63
2023-10-20T05:09:26.876Z,77.66
2023-10-20T05:11:57.131Z,77.69
2023-10-20T05:14:29.303Z,77.78
2023-10-20T05:16:59.682Z,77.86
2023-10-20T05:19:33.909Z,78.07
2023-10-20T05:22:04.214Z,78.09
2023-10-20T05:24:34.691Z,78.11
2023-10-20T05:27:05.478Z,78.22
2023-10-20T05:29:35.744Z,78.06
2023-10-20T05:32:07.673Z,77.98
2023-10-20T05:34:38.219Z,78.22
2023-10-20T05:37:08.497Z,78.35
2023-10-20T05:39:39.981Z,78.54
2023-10-20T05:42:10.324Z,78.71
2023-10-20T05:44:49.232Z,78.77
2023-10-20T05:47:19.551Z,78.92
2023-10-20T05:49:49.938Z,78.83
2023-10-20T05:52:20.205Z,78.93
2023-10-20T05:54:50.764Z,78.86
2023-10-20T05:57:21.034Z,78.73
2023-10-20T05:59:52.018Z,78.62
2023-10-20T06:02:22.411Z,78.60
2023-10-20T06:04:52.666Z,78.48
2023-10-20T06:07:23.087Z,78.56
2023-10-20T06:09:53.502Z,78.39
2023-10-20T06:12:23.793Z,78.29
2023-10-20T06:14:54.137Z,78.30
2023-10-20T06:17:24.466Z,78.31
2023-10-20T06:19:54.986Z,78.15
2023-10-20T06:22:25.337Z,78.02
2023-10-20T06:24:56.549Z,77.95
2023-10-20T06:27:26.852Z,77.95
2023-10-20T06:30:02.626Z,77.92
2023-10-20T06:32:43.182Z,78.09
2023-10-20T06:35:14.485Z,78.22
2023-10-20T06:37:56.184Z,78.53
2023-10-20T06:40:27.051Z,78.86
2023-10-20T06:42:57.285Z,79.13
2023-10-20T06:45:27.550Z,79.44
2023-10-20T06:47:58.633Z,79.48
2023-10-20T06:50:29.133Z,79.31
2023-10-20T06:53:00.756Z,79.18
2023-10-20T06:55:55.218Z,79.05
2023-10-20T06:58:21.362Z,78.94
2023-10-20T07:00:51.780Z,79.07
2023-10-20T07:03:22.971Z,79.00
2023-10-20T07:05:53.346Z,79.10
2023-10-20T07:08:23.575Z,79.19
2023-10-20T07:10:53.914Z,79.27
2023-10-20T07:13:24.143Z,79.29
2023-10-20T07:15:57.814Z,79.29
2023-10-20T07:18:28.559Z,79.38
2023-10-20T07:20:59.279Z,79.18
2023-10-20T07:23:29.581Z,79.12
2023-10-20T07:25:59.991Z,79.38
2023-10-20T07:28:30.242Z,79.46
2023-10-20T07:31:01.056Z,79.71
2023-10-20T07:33:31.588Z,79.91
2023-10-20T07:36:05.502Z,79.89
2023-10-20T07:38:35.884Z,79.90
2023-10-20T07:41:07.563Z,79.79
2023-10-20T07:43:37.836Z,79.83
2023-10-20T07:46:08.161Z,79.78
2023-10-20T07:48:39.795Z,79.55
2023-10-20T07:51:10.266Z,79.29
2023-10-20T07:53:40.790Z,79.23
2023-10-20T07:56:11.225Z,79.21
2023-10-20T07:58:41.487Z,79.13
2023-10-20T08:01:11.791Z,78.78
2023-10-20T08:03:47.117Z,78.48
2023-10-20T08:06:18.176Z,78.09
2023-10-20T08:08:48.606Z,78.06
2023-10-20T08:11:18.876Z,77.88
2023-10-20T08:13:52.644Z,77.96
2023-10-20T08:16:23.219Z,77.91
2023-10-20T08:18:54.244Z,78.03
2023-10-20T08:21:27.372Z,77.92
2023-10-20T08:23:59.136Z,78.12
2023-10-20T08:26:29.392Z,78.19
2023-10-20T08:28:59.686Z,78.24
2023-10-20T08:31:30.074Z,78.05
2023-10-20T08:34:01.259Z,78.18
2023-10-20T08:36:31.800Z,78.24
2023-10-20T08:41:52.562Z,78.52
2023-10-20T08:44:23.020Z,78.62
2023-10-20T08:46:53.689Z,78.70
2023-10-20T08:49:24.221Z,78.70
2023-10-20T08:51:56.083Z,78.43
2023-10-20T08:54:27.775Z,78.19
2023-10-20T08:56:58.822Z,78.38
2023-10-20T08:59:29.525Z,78.35
2023-10-20T09:02:00.125Z,78.81
2023-10-20T09:04:30.819Z,78.97
2023-10-20T09:07:05.401Z,78.93
2023-10-20T09:09:36.733Z,79.23
2023-10-20T09:12:07.923Z,79.05
2023-10-20T09:14:41.023Z,78.66
2023-10-20T09:17:21.327Z,78.34
2023-10-20T09:19:51.698Z,78.43
2023-10-20T09:22:30.653Z,77.79
2023-10-20T09:27:33.496Z,77.75
2023-10-20T09:30:03.771Z,77.78
2023-10-20T09:32:34.155Z,77.91
2023-10-20T09:35:04.690Z,78.02
2023-10-20T09:37:37.047Z,78.08
2023-10-20T09:40:08.403Z,77.51
2023-10-20T09:42:47.940Z,77.61
2023-10-20T09:45:21.293Z,77.21
2023-10-20T09:47:54.647Z,77.11
2023-10-20T09:50:25.187Z,76.92
2023-10-20T09:52:55.844Z,76.57
2023-10-20T09:55:26.402Z,76.72
2023-10-20T09:57:57.951Z,76.84
2023-10-20T10:00:36.061Z,76.13
2023-10-20T10:03:07.075Z,75.80
2023-10-20T10:05:37.978Z,75.46
2023-10-20T10:08:09.262Z,75.33
2023-10-20T10:10:39.742Z,75.07
2023-10-20T10:13:10.026Z,75.09
2023-10-20T10:15:40.985Z,75.31
2023-10-20T10:18:12.830Z,75.51
2023-10-20T10:20:49.162Z,75.25
2023-10-20T10:23:19.507Z,74.91
2023-10-20T10:25:50.889Z,74.98
2023-10-20T10:28:21.843Z,74.71
2023-10-20T10:30:53.523Z,74.73
2023-10-20T10:33:24.702Z,74.90
2023-10-20T10:36:06.274Z,74.58
2023-10-20T10:38:44.516Z,74.44
2023-10-20T10:41:15.602Z,74.48
2023-10-20T10:43:46.009Z,74.31
2023-10-20T10:46:16.309Z,74.15
2023-10-20T10:48:46.679Z,73.80
2023-10-20T10:51:16.944Z,73.96
2023-10-20T10:53:47.300Z,74.18
2023-10-20T10:56:17.735Z,74.38
2023-10-20T10:58:48.180Z,74.38
2023-10-20T11:01:18.836Z,74.25
2023-10-20T11:03:49.469Z,73.89
2023-10-20T11:06:20.002Z,74.11
2023-10-20T11:08:50.338Z,73.60
2023-10-20T11:11:20.713Z,73.22
2023-10-20T11:13:50.979Z,73.41
2023-10-20T11:16:21.253Z,73.59
2023-10-20T11:18:52.500Z,73.53
2023-10-20T11:21:22.798Z,73.41
2023-10-20T11:23:57.680Z,73.53
2023-10-20T11:26:28.155Z,73.60
2023-10-20T11:29:00.525Z,73.84
2023-10-20T11:31:33.340Z,73.83
2023-10-20T11:34:04.026Z,73.40
2023-10-20T11:36:35.259Z,73.63
2023-10-20T11:39:07.755Z,73.40
2023-10-20T11:41:38.043Z,73.46
2023-10-20T11:44:08.860Z,73.49
2023-10-20T11:46:39.261Z,73.56
2023-10-20T11:49:09.577Z,73.67
2023-10-20T11:51:39.920Z,73.62
2023-10-20T11:54:10.241Z,73.76
2023-10-20T11:56:41.448Z,74.03
2023-10-20T11:59:12.872Z,74.08
2023-10-20T12:01:43.216Z,74.22
2023-10-20T12:04:14.120Z,74.08
2023-10-20T12:06:45.514Z,74.21
2023-10-20T12:09:18.290Z,74.27
2023-10-20T12:11:48.764Z,74.23
2023-10-20T12:14:19.202Z,74.23
2023-10-20T12:16:49.580Z,74.40
2023-10-20T12:19:20.053Z,74.65
2023-10-20T12:21:50.791Z,74.80
2023-10-20T12:24:21.080Z,75.20
2023-10-20T12:26:51.424Z,75.38
2023-10-20T12:29:23.937Z,75.25
2023-10-20T12:31:54.459Z,75.29
2023-10-20T12:34:24.853Z,75.17
2023-10-20T12:36:55.142Z,75.42
2023-10-20T12:39:27.078Z,75.23
2023-10-20T12:41:57.547Z,75.02
2023-10-20T12:44:27.912Z,75.01
2023-10-20T12:46:58.373Z,74.97
2023-10-20T12:49:28.760Z,74.97
2023-10-20T12:52:01.594Z,75.00
2023-10-20T12:54:31.983Z,75.06
2023-10-20T12:57:02.401Z,74.98
2023-10-20T12:59:32.727Z,75.09
2023-10-20T13:02:05.402Z,75.14
2023-10-20T13:04:36.339Z,75.29
2023-10-20T13:07:07.415Z,75.28
2023-10-20T13:09:37.667Z,75.37
2023-10-20T13:12:08.273Z,75.50
2023-10-20T13:14:39.052Z,75.17
2023-10-20T13:17:09.420Z,75.38
2023-10-20T13:19:39.908Z,75.18
2023-10-20T13:22:10.223Z,74.95
2023-10-20T13:24:41.664Z,74.68
2023-10-20T13:27:13.725Z,74.77
2023-10-20T13:29:44.200Z,74.70
2023-10-20T13:32:14.596Z,74.67
2023-10-20T13:34:45.219Z,74.63
2023-10-20T13:37:16.266Z,74.46
2023-10-20T13:39:47.349Z,74.47
2023-10-20T13:42:18.944Z,74.57
2023-10-20T13:44:50.761Z,74.43
2023-10-20T13:47:22.389Z,74.43
2023-10-20T13:49:53.687Z,74.41
2023-10-20T13:52:25.030Z,74.31
2023-10-20T13:54:55.984Z,74.21
2023-10-20T13:57:26.699Z,74.07
2023-10-20T13:59:57.194Z,74.14
2023-10-20T14:02:27.613Z,73.96
2023-10-20T14:04:58.160Z,74.02
2023-10-20T14:07:28.480Z,74.06
2023-10-20T14:09:58.778Z,74.25
2023-10-20T14:12:29.066Z,74.25
2023-10-20T14:15:00.697Z,74.17
2023-10-20T14:17:31.084Z,74.11
2023-10-20T14:20:01.864Z,74.17
2023-10-20T14:22:32.436Z,74.20
2023-10-20T14:25:02.877Z,74.03
2023-10-20T14:27:34.865Z,73.87
2023-10-20T14:30:05.929Z,74.04
2023-10-20T14:32:36.307Z,74.04
2023-10-20T14:35:08.066Z,74.13
2023-10-20T14:37:39.608Z,74.18
2023-10-20T14:40:11.900Z,74.30
2023-10-20T14:42:42.527Z,74.34
2023-10-20T14:45:13.037Z,74.32
2023-10-20T14:47:43.366Z,74.26
2023-10-20T14:50:13.738Z,74.18
2023-10-20T14:52:44.045Z,74.07
2023-10-20T14:55:15.551Z,74.08
2023-10-20T14:57:46.729Z,74.03
2023-10-20T15:00:17.837Z,73.88
2023-10-20T15:02:48.316Z,73.82
2023-10-20T15:05:18.934Z,73.71
2023-10-20T15:07:49.277Z,73.83
2023-10-20T15:10:20.904Z,73.86
2023-10-20T15:12:51.331Z,73.86
2023-10-20T15:15:21.588Z,73.79
2023-10-20T15:17:51.989Z,73.73
2023-10-20T15:20:23.164Z,73.91
2023-10-20T15:22:55.761Z,73.83
2023-10-20T15:25:37.225Z,73.83
2023-10-20T15:28:07.866Z,73.93
2023-10-20T15:30:39.887Z,74.01
2023-10-20T15:33:10.411Z,74.13
2023-10-20T15:35:41.628Z,74.12
2023-10-20T15:38:13.495Z,74.05
2023-10-20T15:40:51.170Z,74.24
2023-10-20T15:43:21.399Z,74.37
2023-10-20T15:45:51.763Z,74.43
2023-10-20T15:48:22.561Z,74.81
2023-10-20T15:50:52.960Z,74.79
2023-10-20T15:53:23.401Z,74.81
2023-10-20T15:55:55.147Z,75.04
2023-10-20T15:58:25.581Z,75.25
2023-10-20T16:01:00.802Z,75.14
2023-10-20T16:03:31.940Z,75.37
2023-10-20T16:06:02.575Z,75.14
2023-10-20T16:08:33.723Z,75.30
2023-10-20T16:11:05.466Z,75.38
2023-10-20T16:13:36.460Z,75.68
2023-10-20T16:16:08.274Z,75.68
2023-10-20T16:18:41.855Z,76.03
2023-10-20T16:21:17.680Z,76.24
2023-10-20T16:23:50.671Z,76.28
2023-10-20T16:26:22.065Z,76.38
2023-10-20T16:28:53.549Z,76.10
2023-10-20T16:31:25.582Z,76.16
2023-10-20T16:33:57.356Z,76.07
2023-10-20T16:36:29.947Z,76.11
2023-10-20T16:39:06.828Z,76.26
2023-10-20T16:41:41.040Z,76.02
2023-10-20T16:44:14.033Z,75.92
2023-10-20T16:46:46.068Z,75.91
2023-10-20T16:49:17.679Z,75.76
2023-10-20T16:51:49.553Z,75.75
2023-10-20T16:54:22.056Z,75.70
2023-10-20T16:56:54.540Z,75.71
2023-10-20T16:59:29.627Z,75.92
2023-10-20T17:02:01.451Z,75.86
2023-10-20T17:04:33.401Z,75.87
2023-10-20T17:07:08.564Z,75.83
2023-10-20T17:09:41.918Z,76.05
2023-10-20T17:12:14.860Z,75.95
2023-10-20T17:14:46.943Z,76.31
2023-10-20T17:17:20.446Z,76.23
2023-10-20T17:19:54.058Z,76.48
2023-10-20T17:22:28.666Z,76.53
2023-10-20T17:25:03.979Z,76.48
2023-10-20T17:27:35.565Z,76.64
2023-10-20T17:30:08.962Z,76.77
2023-10-20T17:32:40.600Z,76.77
2023-10-20T17:35:14.014Z,76.96
2023-10-20T17:37:51.728Z,77.04
2023-10-20T17:40:25.404Z,77.07
2023-10-20T17:42:57.175Z,77.42
2023-10-20T17:45:31.414Z,77.49
2023-10-20T17:48:05.353Z,77.23
2023-10-20T17:50:43.290Z,77.29
2023-10-20T17:53:16.431Z,77.48
2023-10-20T17:55:51.077Z,77.75
2023-10-20T17:58:25.694Z,77.86
2023-10-20T18:00:57.699Z,78.12
2023-10-20T18:03:30.008Z,78.20
2023-10-20T18:06:11.841Z,78.04
2023-10-20T18:08:46.880Z,78.03
2023-10-20T18:11:22.994Z,77.99
2023-10-20T18:13:57.049Z,77.68
2023-10-20T18:16:31.620Z,77.72
2023-10-20T18:19:09.324Z,77.60
2023-10-20T18:21:42.171Z,77.45
2023-10-20T18:24:17.784Z,77.37
2023-10-20T18:26:53.961Z,77.31
2023-10-20T18:29:26.293Z,77.10
2023-10-20T18:32:08.585Z,76.92
2023-10-20T18:34:42.433Z,77.00
2023-10-20T18:37:20.437Z,76.80
2023-10-20T18:39:57.724Z,76.66
2023-10-20T18:42:35.704Z,76.68
2023-10-20T18:45:13.407Z,76.73
2023-10-20T18:47:45.521Z,76.68
2023-10-20T18:50:18.720Z,76.65
2023-10-20T18:52:52.737Z,76.56
2023-10-20T18:55:28.709Z,76.69
2023-10-20T18:58:05.063Z,76.47
2023-10-20T19:00:46.110Z,76.64
2023-10-20T19:03:18.353Z,76.67
2023-10-20T19:05:52.605Z,76.59
2023-10-20T19:08:25.570Z,76.73
2023-10-20T19:11:00.796Z,76.79
2023-10-20T19:13:32.627Z,76.79
2023-10-20T19:16:06.199Z,76.66
2023-10-20T19:18:38.942Z,76.96
2023-10-20T19:21:12.350Z,76.90
2023-10-20T19:23:44.986Z,76.93
2023-10-20T19:26:17.176Z,77.09
2023-10-20T19:28:52.670Z,77.21
2023-10-20T19:31:24.474Z,77.18
2023-10-20T19:33:58.847Z,77.09
2023-10-20T19:36:30.818Z,76.92
2023-10-20T19:39:06.674Z,77.21
2023-10-20T19:41:43.470Z,77.54
2023-10-20T19:44:16.287Z,77.52
2023-10-20T19:46:49.149Z,77.86
2023-10-20T19:49:20.981Z,77.90
2023-10-20T19:51:52.912Z,77.72
2023-10-20T19:54:24.707Z,77.80
2023-10-20T19:56:57.194Z,77.87
2023-10-20T19:59:28.826Z,77.68
2023-10-20T20:02:03.228Z,77.55
2023-10-20T20:04:36.333Z,77.65
2023-10-20T20:07:08.994Z,77.31
2023-10-20T20:09:48.197Z,77.29
2023-10-20T20:12:20.477Z,77.26
2023-10-20T20:14:55.708Z,77.09
2023-10-20T20:17:27.740Z,77.08
2023-10-20T20:19:59.459Z,77.04
2023-10-20T20:22:31.470Z,76.90
2023-10-20T20:25:04.059Z,77.00
2023-10-20T20:27:36.999Z,76.93
2023-10-20T20:30:09.907Z,76.97
2023-10-20T20:32:41.685Z,76.94
2023-10-20T20:35:15.502Z,76.93
2023-10-20T20:37:49.632Z,77.00
2023-10-20T20:40:21.327Z,77.20
2023-10-20T20:42:53.446Z,77.12
2023-10-20T20:45:24.334Z,77.21
2023-10-20T20:47:55.597Z,77.37
2023-10-20T20:50:33.193Z,77.31
2023-10-20T20:53:06.180Z,77.41
2023-10-20T20:55:38.884Z,77.41
2023-10-20T20:58:10.711Z,77.34
2023-10-20T21:00:46.483Z,77.48
2023-10-20T21:03:23.076Z,77.66
2023-10-20T21:06:01.298Z,77.69
2023-10-20T21:08:41.352Z,77.88
2023-10-20T21:11:16.875Z,77.91
2023-10-20T21:13:51.014Z,77.98
2023-10-20T21:16:21.964Z,77.92
2023-10-20T21:18:52.925Z,78.01
2023-10-20T21:21:25.598Z,78.22
2023-10-20T21:23:56.693Z,78.41
2023-10-20T21:26:28.074Z,78.61
2023-10-20T21:28:58.974Z,78.73
2023-10-20T21:31:29.332Z,78.63
2023-10-20T21:33:59.867Z,78.74
2023-10-20T21:36:30.686Z,78.76
2023-10-20T21:39:01.268Z,78.59
2023-10-20T21:41:31.564Z,78.40
2023-10-20T21:44:04.709Z,78.23
2023-10-20T21:46:35.722Z,78.41
2023-10-20T21:49:06.319Z,78.22
2023-10-20T21:51:36.730Z,78.07
2023-10-20T21:54:08.064Z,77.96
2023-10-20T21:56:38.527Z,77.74
2023-10-20T21:59:08.892Z,77.73
2023-10-20T22:01:39.120Z,77.61
2023-10-20T22:04:11.815Z,77.50
2023-10-20T22:06:42.528Z,77.36
2023-10-20T22:09:13.738Z,77.50
2023-10-20T22:11:46.797Z,77.33
2023-10-20T22:14:17.083Z,77.29
2023-10-20T22:16:47.430Z,77.41
2023-10-20T22:19:18.576Z,77.46
2023-10-20T22:21:48.829Z,77.48
2023-10-20T22:24:19.037Z,77.52
2023-10-20T22:26:49.315Z,77.70
2023-10-20T22:29:19.653Z,77.66
2023-10-20T22:31:50.383Z,77.67
2023-10-20T22:34:20.641Z,77.73
2023-10-20T22:36:51.174Z,77.85
2023-10-20T22:39:24.019Z,77.92
2023-10-20T22:41:55.791Z,78.00
2023-10-20T22:44:26.082Z,78.14
2023-10-20T22:46:56.410Z,78.20
2023-10-20T22:49:26.786Z,78.56
2023-10-20T22:51:57.054Z,78.49
2023-10-20T22:54:27.290Z,78.66
2023-10-20T22:56:57.643Z,78.67
2023-10-20T22:59:28.020Z,78.43
2023-10-20T23:01:58.292Z,78.51
2023-10-20T23:04:28.695Z,78.73
2023-10-20T23:06:59.072Z,78.97
2023-10-20T23:09:29.335Z,79.22
2023-10-20T23:11:59.757Z,79.25
2023-10-20T23:14:30.034Z,79.30
2023-10-20T23:17:01.036Z,79.19
2023-10-20T23:19:31.269Z,79.13
2023-10-20T23:22:01.556Z,79.10
2023-10-20T23:24:31.859Z,79.08
2023-10-20T23:27:02.325Z,78.85
2023-10-20T23:29:32.736Z,78.70
2023-10-20T23:32:03.106Z,78.63
2023-10-20T23:34:35.117Z,78.39
2023-10-20T23:37:08.641Z,78.21
2023-10-20T23:39:38.880Z,78.25
2023-10-20T23:42:09.274Z,77.92
2023-10-20T23:44:39.749Z,77.85
2023-10-20T23:47:10.236Z,77.74
2023-10-20T23:49:40.492Z,77.75
2023-10-20T23:52:10.846Z,77.56
2023-10-20T23:54:41.124Z,77.52
2023-10-20T23:57:11.454Z,77.65
2023-10-20T23:59:41.734Z,77.58
